sensor_id;sensor_type;location;lat;lon;timestamp;pressure;altitude;pressure_sealevel;temperature;humidity
1926;BME280;964;42.606;23.588;2023-08-07T00:02:19;93974.06;;;38.65;25.92
1926;BME280;964;42.606;23.588;2023-08-07T00:04:45;93970.38;;;38.70;26.22
1926;BME280;964;42.606;23.588;2023-08-07T00:07:13;93968.50;;;39.01;25.93
1926;BME280;964;42.606;23.588;2023-08-07T00:09:40;93969.06;;;39.07;25.78
1926;BME280;964;42.606;23.588;2023-08-07T00:12:06;93967.91;;;38.87;26.05
1926;BME280;964;42.606;23.588;2023-08-07T00:14:33;93963.72;;;38.65;26.31
1926;BME280;964;42.606;23.588;2023-08-07T00:17:00;93979.63;;;38.72;26.27
1926;BME280;964;42.606;23.588;2023-08-07T00:19:26;93967.59;;;38.98;26.43
1926;BME280;964;42.606;23.588;2023-08-07T00:21:53;93963.88;;;39.03;25.89
1926;BME280;964;42.606;23.588;2023-08-07T00:24:21;93968.53;;;38.65;26.22
1926;BME280;964;42.606;23.588;2023-08-07T00:26:47;93966.78;;;38.83;26.28
1926;BME280;964;42.606;23.588;2023-08-07T00:29:14;93971.47;;;38.67;26.36
1926;BME280;964;42.606;23.588;2023-08-07T00:31:40;93972.56;;;38.07;26.72
1926;BME280;964;42.606;23.588;2023-08-07T00:34:07;93965.28;;;38.17;26.40
1926;BME280;964;42.606;23.588;2023-08-07T00:36:35;93980.34;;;37.88;26.77
1926;BME280;964;42.606;23.588;2023-08-07T00:39:01;93984.66;;;37.97;26.89
1926;BME280;964;42.606;23.588;2023-08-07T00:41:30;93999.19;;;38.67;26.30
1926;BME280;964;42.606;23.588;2023-08-07T00:43:56;93994.69;;;38.56;26.05
1926;BME280;964;42.606;23.588;2023-08-07T00:46:23;93999.09;;;38.88;25.77
1926;BME280;964;42.606;23.588;2023-08-07T00:48:51;93992.03;;;39.22;25.50
1926;BME280;964;42.606;23.588;2023-08-07T00:51:19;94003.72;;;38.85;26.12
1926;BME280;964;42.606;23.588;2023-08-07T00:53:46;93999.75;;;39.01;25.60
1926;BME280;964;42.606;23.588;2023-08-07T00:56:14;94015.56;;;38.37;26.06
1926;BME280;964;42.606;23.588;2023-08-07T00:58:43;94009.47;;;38.59;26.35
1926;BME280;964;42.606;23.588;2023-08-07T01:01:10;94011.84;;;38.55;26.47
1926;BME280;964;42.606;23.588;2023-08-07T01:03:37;94006.22;;;38.68;26.28
1926;BME280;964;42.606;23.588;2023-08-07T01:06:04;94006.34;;;38.62;26.84
1926;BME280;964;42.606;23.588;2023-08-07T01:08:31;94007.25;;;38.86;26.36
1926;BME280;964;42.606;23.588;2023-08-07T01:11:13;94017.53;;;38.49;26.42
1926;BME280;964;42.606;23.588;2023-08-07T01:13:51;94011.44;;;38.79;26.31
1926;BME280;964;42.606;23.588;2023-08-07T01:16:30;94023.97;;;38.72;26.39
1926;BME280;964;42.606;23.588;2023-08-07T01:19:00;94010.72;;;39.22;26.32
1926;BME280;964;42.606;23.588;2023-08-07T01:21:28;94005.00;;;39.28;26.23
1926;BME280;964;42.606;23.588;2023-08-07T01:23:56;94004.41;;;39.21;26.25
1926;BME280;964;42.606;23.588;2023-08-07T01:26:23;93996.63;;;39.86;25.24
1926;BME280;964;42.606;23.588;2023-08-07T01:28:58;94007.19;;;39.80;25.54
1926;BME280;964;42.606;23.588;2023-08-07T01:31:33;94010.38;;;40.14;24.93
1926;BME280;964;42.606;23.588;2023-08-07T01:34:04;94025.22;;;39.51;25.89
1926;BME280;964;42.606;23.588;2023-08-07T01:36:32;94018.84;;;39.86;25.51
1926;BME280;964;42.606;23.588;2023-08-07T01:39:01;94011.09;;;40.07;25.01
1926;BME280;964;42.606;23.588;2023-08-07T01:41:30;94024.31;;;39.56;25.85
1926;BME280;964;42.606;23.588;2023-08-07T01:43:57;94016.63;;;39.77;25.47
1926;BME280;964;42.606;23.588;2023-08-07T01:46:24;94019.41;;;39.26;25.98
1926;BME280;964;42.606;23.588;2023-08-07T01:48:50;94016.06;;;40.01;25.19
1926;BME280;964;42.606;23.588;2023-08-07T01:51:17;94020.75;;;38.89;26.12
1926;BME280;964;42.606;23.588;2023-08-07T01:53:43;94021.56;;;37.58;27.34
1926;BME280;964;42.606;23.588;2023-08-07T01:56:11;94014.38;;;39.83;25.19
1926;BME280;964;42.606;23.588;2023-08-07T01:58:38;94010.25;;;39.54;24.84
1926;BME280;964;42.606;23.588;2023-08-07T02:01:05;94015.88;;;39.84;25.21
1926;BME280;964;42.606;23.588;2023-08-07T02:03:31;94013.28;;;40.54;24.23
1926;BME280;964;42.606;23.588;2023-08-07T02:05:58;94020.25;;;39.57;25.26
1926;BME280;964;42.606;23.588;2023-08-07T02:08:26;94011.00;;;39.62;25.30
1926;BME280;964;42.606;23.588;2023-08-07T02:10:52;94025.78;;;39.57;25.14
1926;BME280;964;42.606;23.588;2023-08-07T02:13:20;94019.78;;;39.81;25.10
1926;BME280;964;42.606;23.588;2023-08-07T02:15:47;94020.16;;;39.85;25.09
1926;BME280;964;42.606;23.588;2023-08-07T02:18:14;94030.31;;;39.98;24.63
1926;BME280;964;42.606;23.588;2023-08-07T02:20:41;94026.63;;;40.33;24.19
1926;BME280;964;42.606;23.588;2023-08-07T02:23:07;94027.53;;;39.98;24.90
1926;BME280;964;42.606;23.588;2023-08-07T02:25:34;94028.78;;;39.59;25.55
1926;BME280;964;42.606;23.588;2023-08-07T02:28:01;94061.91;;;38.57;26.44
1926;BME280;964;42.606;23.588;2023-08-07T02:30:30;94051.19;;;38.53;26.59
1926;BME280;964;42.606;23.588;2023-08-07T02:32:57;94051.38;;;37.93;27.69
1926;BME280;964;42.606;23.588;2023-08-07T02:35:24;94060.16;;;38.25;26.92
1926;BME280;964;42.606;23.588;2023-08-07T02:37:50;94050.13;;;38.64;26.63
1926;BME280;964;42.606;23.588;2023-08-07T02:40:17;94037.22;;;39.31;25.71
1926;BME280;964;42.606;23.588;2023-08-07T02:42:44;94049.00;;;38.10;26.79
1926;BME280;964;42.606;23.588;2023-08-07T02:45:11;94052.69;;;38.13;26.86
1926;BME280;964;42.606;23.588;2023-08-07T02:47:39;94055.44;;;38.34;26.86
1926;BME280;964;42.606;23.588;2023-08-07T02:50:06;94052.59;;;39.03;26.60
1926;BME280;964;42.606;23.588;2023-08-07T02:52:33;94055.53;;;38.98;26.34
1926;BME280;964;42.606;23.588;2023-08-07T02:54:59;94059.28;;;37.21;27.37
1926;BME280;964;42.606;23.588;2023-08-07T02:57:26;94061.44;;;37.02;28.77
1926;BME280;964;42.606;23.588;2023-08-07T02:59:52;94058.69;;;38.24;27.17
1926;BME280;964;42.606;23.588;2023-08-07T03:02:19;94060.16;;;38.25;26.83
1926;BME280;964;42.606;23.588;2023-08-07T03:04:47;94059.72;;;38.14;26.91
1926;BME280;964;42.606;23.588;2023-08-07T03:07:14;94067.22;;;37.72;27.27
1926;BME280;964;42.606;23.588;2023-08-07T03:09:40;94070.13;;;37.66;27.65
1926;BME280;964;42.606;23.588;2023-08-07T03:12:07;94075.88;;;37.21;28.45
1926;BME280;964;42.606;23.588;2023-08-07T03:14:34;94072.09;;;37.79;27.48
1926;BME280;964;42.606;23.588;2023-08-07T03:17:01;94065.47;;;37.82;27.57
1926;BME280;964;42.606;23.588;2023-08-07T03:19:27;94075.66;;;38.70;26.51
1926;BME280;964;42.606;23.588;2023-08-07T03:21:55;94076.78;;;38.25;26.52
1926;BME280;964;42.606;23.588;2023-08-07T03:24:22;94084.47;;;37.78;27.27
1926;BME280;964;42.606;23.588;2023-08-07T03:26:49;94088.75;;;37.66;27.52
1926;BME280;964;42.606;23.588;2023-08-07T03:29:15;94089.78;;;37.29;27.33
1926;BME280;964;42.606;23.588;2023-08-07T03:31:42;94092.66;;;37.23;28.17
1926;BME280;964;42.606;23.588;2023-08-07T03:34:09;94097.00;;;37.79;27.48
1926;BME280;964;42.606;23.588;2023-08-07T03:36:35;94089.09;;;38.66;26.44
1926;BME280;964;42.606;23.588;2023-08-07T03:39:05;94093.09;;;38.37;26.92
1926;BME280;964;42.606;23.588;2023-08-07T03:41:33;94109.25;;;36.71;28.46
1926;BME280;964;42.606;23.588;2023-08-07T03:43:59;94098.53;;;38.21;26.97
1926;BME280;964;42.606;23.588;2023-08-07T03:46:26;94099.19;;;38.35;26.65
1926;BME280;964;42.606;23.588;2023-08-07T03:48:53;94097.50;;;37.57;27.33
1926;BME280;964;42.606;23.588;2023-08-07T03:51:19;94102.47;;;37.11;28.40
1926;BME280;964;42.606;23.588;2023-08-07T03:53:46;94106.78;;;37.20;27.46
1926;BME280;964;42.606;23.588;2023-08-07T03:56:14;94113.50;;;36.85;27.91
1926;BME280;964;42.606;23.588;2023-08-07T03:58:40;94115.41;;;38.52;26.59
1926;BME280;964;42.606;23.588;2023-08-07T04:01:07;94116.75;;;38.38;26.34
1926;BME280;964;42.606;23.588;2023-08-07T04:03:34;94122.97;;;38.31;26.48
1926;BME280;964;42.606;23.588;2023-08-07T04:06:01;94124.00;;;38.61;26.44
1926;BME280;964;42.606;23.588;2023-08-07T04:08:30;94122.69;;;38.00;26.77
1926;BME280;964;42.606;23.588;2023-08-07T04:10:58;94127.94;;;36.78;28.19
1926;BME280;964;42.606;23.588;2023-08-07T04:13:27;94123.72;;;38.31;26.79
1926;BME280;964;42.606;23.588;2023-08-07T04:15:54;94124.41;;;38.03;26.90
1926;BME280;964;42.606;23.588;2023-08-07T04:18:21;94133.19;;;37.68;27.20
1926;BME280;964;42.606;23.588;2023-08-07T04:20:49;94131.50;;;37.65;27.46
1926;BME280;964;42.606;23.588;2023-08-07T04:23:15;94134.03;;;37.76;27.31
1926;BME280;964;42.606;23.588;2023-08-07T04:28:56;94135.72;;;38.75;26.33
1926;BME280;964;42.606;23.588;2023-08-07T04:31:23;94131.63;;;38.48;26.24
1926;BME280;964;42.606;23.588;2023-08-07T04:33:50;94130.84;;;38.40;26.13
1926;BME280;964;42.606;23.588;2023-08-07T04:36:16;94139.22;;;36.93;28.07
1926;BME280;964;42.606;23.588;2023-08-07T04:38:43;94129.00;;;37.54;27.29
1926;BME280;964;42.606;23.588;2023-08-07T04:41:10;94120.00;;;38.28;26.25
1926;BME280;964;42.606;23.588;2023-08-07T04:43:37;94130.97;;;38.00;26.97
1926;BME280;964;42.606;23.588;2023-08-07T04:46:05;94127.38;;;37.58;26.97
1926;BME280;964;42.606;23.588;2023-08-07T04:48:31;94129.84;;;36.96;27.55
1926;BME280;964;42.606;23.588;2023-08-07T04:50:58;94134.69;;;35.68;29.16
1926;BME280;964;42.606;23.588;2023-08-07T04:53:24;94121.69;;;37.77;26.34
1926;BME280;964;42.606;23.588;2023-08-07T04:55:51;94115.69;;;37.99;26.41
1926;BME280;964;42.606;23.588;2023-08-07T04:58:18;94120.22;;;37.16;27.37
1926;BME280;964;42.606;23.588;2023-08-07T05:00:44;94127.28;;;36.98;27.29
1926;BME280;964;42.606;23.588;2023-08-07T05:03:13;94130.44;;;36.18;28.20
1926;BME280;964;42.606;23.588;2023-08-07T05:05:40;94128.56;;;35.19;28.76
1926;BME280;964;42.606;23.588;2023-08-07T05:08:07;94121.81;;;36.08;27.94
1926;BME280;964;42.606;23.588;2023-08-07T05:10:34;94120.06;;;37.34;26.69
1926;BME280;964;42.606;23.588;2023-08-07T05:13:00;94114.13;;;37.30;26.55
1926;BME280;964;42.606;23.588;2023-08-07T05:15:27;94120.63;;;36.04;27.67
1926;BME280;964;42.606;23.588;2023-08-07T05:17:55;94126.38;;;36.37;26.77
1926;BME280;964;42.606;23.588;2023-08-07T05:20:23;94120.84;;;36.06;27.02
1926;BME280;964;42.606;23.588;2023-08-07T05:22:50;94106.47;;;37.37;26.33
1926;BME280;964;42.606;23.588;2023-08-07T05:25:17;94114.34;;;36.67;27.10
1926;BME280;964;42.606;23.588;2023-08-07T05:27:45;94102.78;;;36.36;27.63
1926;BME280;964;42.606;23.588;2023-08-07T05:30:12;94096.50;;;37.07;26.39
1926;BME280;964;42.606;23.588;2023-08-07T05:32:39;94110.69;;;35.45;27.19
1926;BME280;964;42.606;23.588;2023-08-07T05:35:07;94106.41;;;36.31;26.83
1926;BME280;964;42.606;23.588;2023-08-07T05:37:35;94098.19;;;37.23;26.24
1926;BME280;964;42.606;23.588;2023-08-07T05:40:02;94102.88;;;36.89;26.88
1926;BME280;964;42.606;23.588;2023-08-07T05:42:29;94107.53;;;37.20;26.51
1926;BME280;964;42.606;23.588;2023-08-07T05:44:56;94103.84;;;36.33;27.10
1926;BME280;964;42.606;23.588;2023-08-07T05:47:22;94111.16;;;37.75;25.97
1926;BME280;964;42.606;23.588;2023-08-07T05:49:49;94108.66;;;37.98;26.29
1926;BME280;964;42.606;23.588;2023-08-07T05:52:17;94108.59;;;37.30;26.10
1926;BME280;964;42.606;23.588;2023-08-07T05:54:45;94109.41;;;37.39;26.50
1926;BME280;964;42.606;23.588;2023-08-07T05:57:13;94103.66;;;38.59;25.13
1926;BME280;964;42.606;23.588;2023-08-07T05:59:39;94113.66;;;39.18;24.94
1926;BME280;964;42.606;23.588;2023-08-07T06:02:06;94119.81;;;38.96;25.19
1926;BME280;964;42.606;23.588;2023-08-07T06:04:34;94131.16;;;37.08;25.87
1926;BME280;964;42.606;23.588;2023-08-07T06:07:01;94125.25;;;37.98;25.55
1926;BME280;964;42.606;23.588;2023-08-07T06:09:28;94127.44;;;39.39;24.81
1926;BME280;964;42.606;23.588;2023-08-07T06:11:56;94118.78;;;39.14;24.87
1926;BME280;964;42.606;23.588;2023-08-07T06:14:23;94122.16;;;38.02;25.54
1926;BME280;964;42.606;23.588;2023-08-07T06:16:50;94125.88;;;38.95;24.91
1926;BME280;964;42.606;23.588;2023-08-07T06:19:17;94120.66;;;38.63;25.41
1926;BME280;964;42.606;23.588;2023-08-07T06:21:45;94117.91;;;38.01;25.69
1926;BME280;964;42.606;23.588;2023-08-07T06:24:12;94119.50;;;39.07;25.06
1926;BME280;964;42.606;23.588;2023-08-07T06:26:38;94128.06;;;37.85;25.97
1926;BME280;964;42.606;23.588;2023-08-07T06:29:06;94118.25;;;38.88;24.91
1926;BME280;964;42.606;23.588;2023-08-07T06:31:33;94110.91;;;38.90;24.97
1926;BME280;964;42.606;23.588;2023-08-07T06:34:00;94109.00;;;39.49;24.34
1926;BME280;964;42.606;23.588;2023-08-07T06:36:26;94117.69;;;39.17;24.90
1926;BME280;964;42.606;23.588;2023-08-07T06:38:54;94108.66;;;37.98;25.94
1926;BME280;964;42.606;23.588;2023-08-07T06:41:20;94096.56;;;39.94;24.00
1926;BME280;964;42.606;23.588;2023-08-07T06:43:47;94108.88;;;40.44;22.46
1926;BME280;964;42.606;23.588;2023-08-07T06:46:16;94108.69;;;40.64;22.89
1926;BME280;964;42.606;23.588;2023-08-07T06:48:43;94127.28;;;39.96;23.68
1926;BME280;964;42.606;23.588;2023-08-07T06:51:10;94118.09;;;40.24;22.76
1926;BME280;964;42.606;23.588;2023-08-07T06:53:36;94114.97;;;40.50;21.89
1926;BME280;964;42.606;23.588;2023-08-07T06:56:03;94114.38;;;41.12;21.51
1926;BME280;964;42.606;23.588;2023-08-07T06:58:30;94113.31;;;41.95;21.16
1926;BME280;964;42.606;23.588;2023-08-07T07:00:56;94120.06;;;41.84;21.00
1926;BME280;964;42.606;23.588;2023-08-07T07:03:24;94108.09;;;41.99;20.89
1926;BME280;964;42.606;23.588;2023-08-07T07:05:51;94124.88;;;41.29;20.87
1926;BME280;964;42.606;23.588;2023-08-07T07:08:17;94132.53;;;40.14;22.03
1926;BME280;964;42.606;23.588;2023-08-07T07:10:44;94123.31;;;42.55;19.56
1926;BME280;964;42.606;23.588;2023-08-07T07:13:11;94126.28;;;42.57;19.48
1926;BME280;964;42.606;23.588;2023-08-07T07:15:38;94118.63;;;42.65;19.41
1926;BME280;964;42.606;23.588;2023-08-07T07:18:04;94130.19;;;41.57;19.60
1926;BME280;964;42.606;23.588;2023-08-07T07:20:32;94124.50;;;41.87;19.20
1926;BME280;964;42.606;23.588;2023-08-07T07:22:59;94125.66;;;41.69;19.65
1926;BME280;964;42.606;23.588;2023-08-07T07:25:26;94108.56;;;42.87;18.59
1926;BME280;964;42.606;23.588;2023-08-07T07:27:52;94119.22;;;41.99;19.04
1926;BME280;964;42.606;23.588;2023-08-07T07:30:19;94114.91;;;42.38;19.17
1926;BME280;964;42.606;23.588;2023-08-07T07:32:46;94108.94;;;43.08;18.17
1926;BME280;964;42.606;23.588;2023-08-07T07:35:12;94109.09;;;42.19;19.28
1926;BME280;964;42.606;23.588;2023-08-07T07:37:40;94114.84;;;42.45;19.24
1926;BME280;964;42.606;23.588;2023-08-07T07:40:08;94107.53;;;43.17;18.66
1926;BME280;964;42.606;23.588;2023-08-07T07:42:35;94114.59;;;43.52;18.49
1926;BME280;964;42.606;23.588;2023-08-07T07:45:02;94109.78;;;42.76;18.65
1926;BME280;964;42.606;23.588;2023-08-07T07:47:29;94109.81;;;41.47;20.15
1926;BME280;964;42.606;23.588;2023-08-07T07:50:05;94112.97;;;42.16;19.92
1926;BME280;964;42.606;23.588;2023-08-07T07:52:33;94112.56;;;42.76;19.30
1926;BME280;964;42.606;23.588;2023-08-07T07:55:02;94111.53;;;43.58;18.47
1926;BME280;964;42.606;23.588;2023-08-07T07:57:34;94113.34;;;42.20;18.88
1926;BME280;964;42.606;23.588;2023-08-07T08:00:01;94111.34;;;43.90;18.29
1926;BME280;964;42.606;23.588;2023-08-07T08:02:29;94109.63;;;44.31;18.03
1926;BME280;964;42.606;23.588;2023-08-07T08:04:56;94105.22;;;43.23;18.69
1926;BME280;964;42.606;23.588;2023-08-07T08:07:22;94093.94;;;44.45;17.85
1926;BME280;964;42.606;23.588;2023-08-07T08:09:50;94103.00;;;43.56;18.93
1926;BME280;964;42.606;23.588;2023-08-07T08:12:18;94097.22;;;45.07;17.91
1926;BME280;964;42.606;23.588;2023-08-07T08:14:45;94088.72;;;44.68;17.96
1926;BME280;964;42.606;23.588;2023-08-07T08:17:11;94086.41;;;44.94;17.67
1926;BME280;964;42.606;23.588;2023-08-07T08:19:38;94086.41;;;44.94;17.63
1926;BME280;964;42.606;23.588;2023-08-07T08:22:05;94087.13;;;44.75;17.47
1926;BME280;964;42.606;23.588;2023-08-07T08:24:32;94091.22;;;44.64;18.07
1926;BME280;964;42.606;23.588;2023-08-07T08:26:58;94093.22;;;44.45;17.86
1926;BME280;964;42.606;23.588;2023-08-07T08:29:26;94108.44;;;43.98;17.48
1926;BME280;964;42.606;23.588;2023-08-07T08:31:53;94098.22;;;45.02;17.34
1926;BME280;964;42.606;23.588;2023-08-07T08:34:20;94091.47;;;45.24;17.30
1926;BME280;964;42.606;23.588;2023-08-07T08:36:47;94092.06;;;45.13;17.77
1926;BME280;964;42.606;23.588;2023-08-07T08:39:14;94089.84;;;45.50;17.38
1926;BME280;964;42.606;23.588;2023-08-07T08:41:49;94084.41;;;45.61;16.75
1926;BME280;964;42.606;23.588;2023-08-07T08:44:17;94082.78;;;45.49;16.97
1926;BME280;964;42.606;23.588;2023-08-07T08:46:49;94091.84;;;43.38;18.44
1926;BME280;964;42.606;23.588;2023-08-07T08:49:23;94082.59;;;44.07;18.14
1926;BME280;964;42.606;23.588;2023-08-07T08:51:52;94079.81;;;44.43;17.42
1926;BME280;964;42.606;23.588;2023-08-07T08:54:20;94062.59;;;46.50;15.71
1926;BME280;964;42.606;23.588;2023-08-07T08:56:47;94057.06;;;45.91;16.87
1926;BME280;964;42.606;23.588;2023-08-07T08:59:13;94062.00;;;45.52;16.57
1926;BME280;964;42.606;23.588;2023-08-07T09:01:43;94060.25;;;44.99;17.55
1926;BME280;964;42.606;23.588;2023-08-07T09:04:12;94058.19;;;45.28;17.17
1926;BME280;964;42.606;23.588;2023-08-07T09:06:40;94060.09;;;45.16;16.79
1926;BME280;964;42.606;23.588;2023-08-07T09:09:07;94062.28;;;45.27;17.44
1926;BME280;964;42.606;23.588;2023-08-07T09:11:41;94058.25;;;46.28;16.17
1926;BME280;964;42.606;23.588;2023-08-07T09:14:09;94058.19;;;45.38;17.24
1926;BME280;964;42.606;23.588;2023-08-07T09:16:38;94053.69;;;46.63;16.98
1926;BME280;964;42.606;23.588;2023-08-07T09:19:06;94035.91;;;47.13;15.60
1926;BME280;964;42.606;23.588;2023-08-07T09:21:34;94042.75;;;46.89;16.01
1926;BME280;964;42.606;23.588;2023-08-07T09:24:01;94046.84;;;45.35;16.31
1926;BME280;964;42.606;23.588;2023-08-07T09:26:28;94038.72;;;46.40;15.52
1926;BME280;964;42.606;23.588;2023-08-07T09:28:55;94033.22;;;46.51;15.78
1926;BME280;964;42.606;23.588;2023-08-07T09:31:25;94041.09;;;46.12;15.69
1926;BME280;964;42.606;23.588;2023-08-07T09:33:52;94040.50;;;46.04;16.15
1926;BME280;964;42.606;23.588;2023-08-07T09:36:19;94033.88;;;48.14;14.89
1926;BME280;964;42.606;23.588;2023-08-07T09:38:50;94036.78;;;47.48;14.50
1926;BME280;964;42.606;23.588;2023-08-07T09:41:17;94041.88;;;45.94;15.63
1926;BME280;964;42.606;23.588;2023-08-07T09:43:44;94042.91;;;46.29;15.95
1926;BME280;964;42.606;23.588;2023-08-07T09:46:11;94030.44;;;46.51;15.39
1926;BME280;964;42.606;23.588;2023-08-07T09:48:42;94042.88;;;46.91;15.59
1926;BME280;964;42.606;23.588;2023-08-07T09:51:09;94044.91;;;45.19;16.21
1926;BME280;964;42.606;23.588;2023-08-07T09:53:36;94034.38;;;46.27;15.88
1926;BME280;964;42.606;23.588;2023-08-07T09:56:04;94047.03;;;45.97;15.56
1926;BME280;964;42.606;23.588;2023-08-07T09:58:31;94030.91;;;47.44;15.84
1926;BME280;964;42.606;23.588;2023-08-07T10:00:59;94033.53;;;46.15;16.35
1926;BME280;964;42.606;23.588;2023-08-07T10:03:26;94045.50;;;45.27;15.90
1926;BME280;964;42.606;23.588;2023-08-07T10:05:52;94034.16;;;47.08;15.11
1926;BME280;964;42.606;23.588;2023-08-07T10:08:21;94038.34;;;47.18;14.59
1926;BME280;964;42.606;23.588;2023-08-07T10:10:48;94045.81;;;46.93;14.91
1926;BME280;964;42.606;23.588;2023-08-07T10:13:16;94034.34;;;46.89;14.54
1926;BME280;964;42.606;23.588;2023-08-07T10:15:44;94036.75;;;45.80;15.81
1926;BME280;964;42.606;23.588;2023-08-07T10:18:12;94041.50;;;44.82;16.11
1926;BME280;964;42.606;23.588;2023-08-07T10:20:39;94026.44;;;45.83;15.79
1926;BME280;964;42.606;23.588;2023-08-07T10:23:08;94034.22;;;45.84;15.83
1926;BME280;964;42.606;23.588;2023-08-07T10:25:38;94038.41;;;46.45;15.72
1926;BME280;964;42.606;23.588;2023-08-07T10:28:08;94034.97;;;48.55;14.21
1926;BME280;964;42.606;23.588;2023-08-07T10:30:37;94033.47;;;47.85;14.85
1926;BME280;964;42.606;23.588;2023-08-07T10:33:23;94027.19;;;47.30;14.60
1926;BME280;964;42.606;23.588;2023-08-07T10:35:52;94026.97;;;46.84;15.51
1926;BME280;964;42.606;23.588;2023-08-07T10:38:20;94025.47;;;46.83;14.75
1926;BME280;964;42.606;23.588;2023-08-07T10:41:02;94033.81;;;46.50;15.16
1926;BME280;964;42.606;23.588;2023-08-07T10:43:36;94040.34;;;46.12;15.61
1926;BME280;964;42.606;23.588;2023-08-07T10:46:05;94031.66;;;46.91;15.20
1926;BME280;964;42.606;23.588;2023-08-07T10:48:38;94026.38;;;47.39;14.43
1926;BME280;964;42.606;23.588;2023-08-07T10:51:04;94022.50;;;46.38;15.71
1926;BME280;964;42.606;23.588;2023-08-07T10:53:33;94027.81;;;46.65;15.27
1926;BME280;964;42.606;23.588;2023-08-07T10:56:01;94024.69;;;47.13;15.50
1926;BME280;964;42.606;23.588;2023-08-07T10:58:30;94021.00;;;48.57;14.62
1926;BME280;964;42.606;23.588;2023-08-07T11:01:17;94003.16;;;48.64;14.51
1926;BME280;964;42.606;23.588;2023-08-07T11:03:44;94012.56;;;47.32;15.34
1926;BME280;964;42.606;23.588;2023-08-07T11:06:11;94010.16;;;47.49;14.85
1926;BME280;964;42.606;23.588;2023-08-07T11:08:38;94005.34;;;47.07;14.91
1926;BME280;964;42.606;23.588;2023-08-07T11:11:05;94007.91;;;47.24;14.84
1926;BME280;964;42.606;23.588;2023-08-07T11:13:32;94002.91;;;47.02;15.54
1926;BME280;964;42.606;23.588;2023-08-07T11:15:59;93996.69;;;48.74;14.36
1926;BME280;964;42.606;23.588;2023-08-07T11:18:28;93994.34;;;48.58;14.77
1926;BME280;964;42.606;23.588;2023-08-07T11:20:54;93989.47;;;48.24;14.57
1926;BME280;964;42.606;23.588;2023-08-07T11:23:23;93983.59;;;48.67;14.71
1926;BME280;964;42.606;23.588;2023-08-07T11:25:49;93977.53;;;49.71;14.50
1926;BME280;964;42.606;23.588;2023-08-07T11:28:17;93986.03;;;47.67;15.06
1926;BME280;964;42.606;23.588;2023-08-07T11:30:44;93982.66;;;48.15;14.96
1926;BME280;964;42.606;23.588;2023-08-07T11:33:11;93980.69;;;48.18;15.24
1926;BME280;964;42.606;23.588;2023-08-07T11:35:41;93974.97;;;48.88;14.90
1926;BME280;964;42.606;23.588;2023-08-07T11:38:08;93970.06;;;49.00;14.60
1926;BME280;964;42.606;23.588;2023-08-07T11:40:35;93959.53;;;50.72;14.32
1926;BME280;964;42.606;23.588;2023-08-07T11:43:02;93950.34;;;52.55;13.05
1926;BME280;964;42.606;23.588;2023-08-07T11:45:29;93975.50;;;48.61;14.48
1926;BME280;964;42.606;23.588;2023-08-07T11:47:55;93959.63;;;49.67;14.09
1926;BME280;964;42.606;23.588;2023-08-07T11:50:24;93970.38;;;49.06;14.54
1926;BME280;964;42.606;23.588;2023-08-07T11:52:54;93963.16;;;49.53;14.34
1926;BME280;964;42.606;23.588;2023-08-07T11:55:28;93966.63;;;48.90;14.51
1926;BME280;964;42.606;23.588;2023-08-07T11:57:55;93949.25;;;49.83;14.14
1926;BME280;964;42.606;23.588;2023-08-07T12:00:24;93959.03;;;48.67;14.68
1926;BME280;964;42.606;23.588;2023-08-07T12:02:53;93968.13;;;47.96;14.92
1926;BME280;964;42.606;23.588;2023-08-07T12:05:19;93957.31;;;48.99;14.83
1926;BME280;964;42.606;23.588;2023-08-07T12:07:47;93969.19;;;47.79;15.48
1926;BME280;964;42.606;23.588;2023-08-07T12:10:15;93965.44;;;47.30;15.70
1926;BME280;964;42.606;23.588;2023-08-07T12:12:42;93953.56;;;48.83;15.38
1926;BME280;964;42.606;23.588;2023-08-07T12:15:10;93953.16;;;48.63;14.96
1926;BME280;964;42.606;23.588;2023-08-07T12:17:37;93949.69;;;47.93;15.69
1926;BME280;964;42.606;23.588;2023-08-07T12:20:04;93934.28;;;50.05;14.69
1926;BME280;964;42.606;23.588;2023-08-07T12:22:33;93939.47;;;51.24;14.46
1926;BME280;964;42.606;23.588;2023-08-07T12:24:59;93926.09;;;50.95;14.05
1926;BME280;964;42.606;23.588;2023-08-07T12:27:28;93926.72;;;50.94;14.26
1926;BME280;964;42.606;23.588;2023-08-07T12:29:54;93927.84;;;50.73;13.76
1926;BME280;964;42.606;23.588;2023-08-07T12:32:21;93930.34;;;49.72;14.14
1926;BME280;964;42.606;23.588;2023-08-07T12:34:48;93914.66;;;51.07;13.74
1926;BME280;964;42.606;23.588;2023-08-07T12:37:15;93906.47;;;52.72;13.48
1926;BME280;964;42.606;23.588;2023-08-07T12:39:42;93893.34;;;53.71;12.78
1926;BME280;964;42.606;23.588;2023-08-07T12:42:08;93908.00;;;52.75;12.93
1926;BME280;964;42.606;23.588;2023-08-07T12:44:36;93897.63;;;53.34;12.99
1926;BME280;964;42.606;23.588;2023-08-07T12:47:03;93905.16;;;51.61;13.59
1926;BME280;964;42.606;23.588;2023-08-07T12:49:31;93916.66;;;50.75;14.02
1926;BME280;964;42.606;23.588;2023-08-07T12:51:57;93905.78;;;51.28;14.02
1926;BME280;964;42.606;23.588;2023-08-07T12:54:25;93914.31;;;51.15;14.00
1926;BME280;964;42.606;23.588;2023-08-07T12:56:52;93917.75;;;50.84;14.51
1926;BME280;964;42.606;23.588;2023-08-07T12:59:20;93918.97;;;50.51;14.22
1926;BME280;964;42.606;23.588;2023-08-07T13:01:48;93930.41;;;49.46;15.31
1926;BME280;964;42.606;23.588;2023-08-07T13:04:15;93931.50;;;48.65;15.45
1926;BME280;964;42.606;23.588;2023-08-07T13:06:41;93937.31;;;48.81;15.36
1926;BME280;964;42.606;23.588;2023-08-07T13:09:08;93941.19;;;48.88;15.41
1926;BME280;964;42.606;23.588;2023-08-07T13:11:35;93953.34;;;47.28;16.45
1926;BME280;964;42.606;23.588;2023-08-07T13:14:01;93936.44;;;48.79;15.34
1926;BME280;964;42.606;23.588;2023-08-07T13:16:28;93936.69;;;49.58;15.33
1926;BME280;964;42.606;23.588;2023-08-07T13:18:56;93935.69;;;49.93;15.03
1926;BME280;964;42.606;23.588;2023-08-07T13:21:23;93925.22;;;50.64;14.02
1926;BME280;964;42.606;23.588;2023-08-07T13:23:50;93925.00;;;51.77;14.07
1926;BME280;964;42.606;23.588;2023-08-07T13:26:16;93922.34;;;52.46;13.77
1926;BME280;964;42.606;23.588;2023-08-07T13:28:43;93930.53;;;50.85;14.05